Time;durP1;ratioP1;P1;durP2;ratioP2;P2;SDS_P1;SDS_P2;PMS_P1;PMS_P2;Temp;Humidity;BMP_temperature;BMP_pressure;BME280_temperature;BME280_humidity;BME280_pressure;Samples;Min_cycle;Max_cycle;Signal;HPM_P1;HPM_P2
2023/02/08 00:00:51;;;;;;;42.60;24.10;;;0.70;99.90;;;;;;5074504;28;20447;-66
2023/02/08 00:03:19;;;;;;;44.60;26.23;;;0.70;99.90;;;;;;5074251;28;20508;-67
2023/02/08 00:05:46;;;;;;;40.70;25.47;;;0.70;99.90;;;;;;5075034;28;20941;-68
2023/02/08 00:08:13;;;;;;;39.67;25.57;;;0.70;99.90;;;;;;5074397;28;20486;-67
2023/02/08 00:10:40;;;;;;;40.90;24.43;;;0.70;99.90;;;;;;5073964;28;20471;-68
2023/02/08 00:13:07;;;;;;;41.33;26.63;;;0.70;99.90;;;;;;5072968;28;20489;-65
2023/02/08 00:15:34;;;;;;;52.77;28.10;;;0.70;99.90;;;;;;5073338;28;20459;-65
2023/02/08 00:18:01;;;;;;;47.30;26.80;;;0.60;99.90;;;;;;5072235;28;20459;-66
2023/02/08 00:20:29;;;;;;;40.90;24.87;;;0.60;99.90;;;;;;5073633;28;20443;-66
2023/02/08 00:22:56;;;;;;;43.37;28.00;;;0.60;99.90;;;;;;5072924;28;20451;-67
2023/02/08 00:25:23;;;;;;;43.43;27.00;;;0.60;99.90;;;;;;5072363;28;20459;-66
2023/02/08 00:27:50;;;;;;;43.97;28.47;;;0.60;99.90;;;;;;5072286;28;20487;-65
2023/02/08 00:30:17;;;;;;;41.13;26.10;;;0.60;99.90;;;;;;5073447;28;20475;-66
2023/02/08 00:32:44;;;;;;;44.60;24.57;;;0.50;99.90;;;;;;5074485;28;20570;-67
2023/02/08 00:35:11;;;;;;;37.03;23.30;;;0.50;99.90;;;;;;5074943;28;20470;-65
2023/02/08 00:37:39;;;;;;;42.17;23.70;;;0.50;99.90;;;;;;5074422;28;20785;-65
2023/02/08 00:40:07;;;;;;;38.00;23.83;;;0.50;99.90;;;;;;5075145;28;20452;-66
2023/02/08 00:42:34;;;;;;;37.10;23.40;;;0.40;99.90;;;;;;5074233;28;20451;-66
2023/02/08 00:45:01;;;;;;;40.83;24.57;;;0.40;99.90;;;;;;5074502;28;20475;-66
2023/02/08 00:47:28;;;;;;;38.03;24.50;;;0.40;99.90;;;;;;5073669;28;20459;-66
2023/02/08 00:49:55;;;;;;;42.97;24.60;;;0.30;99.90;;;;;;5073688;28;20456;-65
2023/02/08 00:52:22;;;;;;;44.47;25.83;;;0.30;99.90;;;;;;5074243;28;20451;-65
2023/02/08 00:54:51;;;;;;;37.47;23.53;;;0.30;99.90;;;;;;5074030;28;20474;-65
2023/02/08 00:57:18;;;;;;;40.10;23.53;;;0.20;99.90;;;;;;5073777;28;20462;-66
2023/02/08 00:59:44;;;;;;;42.13;25.83;;;0.20;99.90;;;;;;5073767;28;20486;-66
2023/02/08 01:02:12;;;;;;;45.37;26.87;;;0.20;99.90;;;;;;5073655;28;20515;-66
2023/02/08 01:04:39;;;;;;;44.40;26.27;;;0.20;99.90;;;;;;5072754;28;20475;-66
2023/02/08 01:07:06;;;;;;;40.90;24.40;;;0.10;99.90;;;;;;5073393;28;20459;-66
2023/02/08 01:09:34;;;;;;;41.53;25.13;;;0.10;99.90;;;;;;5074373;28;20479;-66
2023/02/08 01:12:03;;;;;;;37.87;25.00;;;0.10;99.90;;;;;;5073766;28;20485;-66
2023/02/08 01:14:30;;;;;;;41.30;25.47;;;0.10;99.90;;;;;;5073777;28;20470;-65
2023/02/08 01:16:57;;;;;;;41.70;26.53;;;0.10;99.90;;;;;;5073305;28;20907;-66
2023/02/08 01:19:24;;;;;;;41.63;25.30;;;0.10;99.90;;;;;;5073698;28;20459;-65
2023/02/08 01:21:51;;;;;;;42.93;25.90;;;0.10;99.90;;;;;;5071773;28;20479;-65
2023/02/08 01:24:17;;;;;;;43.43;26.73;;;0.10;99.90;;;;;;5074171;28;20490;-66
2023/02/08 01:26:44;;;;;;;43.43;26.50;;;0.10;99.90;;;;;;5073717;28;20513;-65
2023/02/08 01:29:13;;;;;;;43.03;25.70;;;0.10;99.90;;;;;;5073357;28;20487;-65
2023/02/08 01:31:41;;;;;;;41.83;25.97;;;0.10;99.90;;;;;;5073083;28;20860;-65
2023/02/08 01:34:10;;;;;;;40.17;25.63;;;0.00;99.90;;;;;;5072878;28;20497;-66
2023/02/08 01:36:38;;;;;;;46.83;28.23;;;0.00;99.90;;;;;;5073522;28;20494;-65
2023/02/08 01:39:06;;;;;;;44.50;25.70;;;0.00;99.90;;;;;;5073054;28;20497;-65
2023/02/08 01:41:35;;;;;;;45.33;25.53;;;0.00;99.90;;;;;;5072711;28;20451;-66
2023/02/08 01:44:09;;;;;;;43.37;25.70;;;-0.10;99.90;;;;;;5073294;28;20582;-65
2023/02/08 01:46:38;;;;;;;46.57;26.97;;;-0.10;99.90;;;;;;5072089;28;20439;-66
2023/02/08 01:49:10;;;;;;;45.37;26.60;;;0.00;99.90;;;;;;5073717;28;20482;-65
2023/02/08 01:51:43;;;;;;;49.60;27.53;;;-0.10;99.90;;;;;;5072974;28;20495;-65
2023/02/08 01:54:12;;;;;;;43.17;27.20;;;-0.10;99.90;;;;;;5072119;28;20474;-66
2023/02/08 01:56:44;;;;;;;40.50;26.07;;;-0.10;99.90;;;;;;5070615;28;20490;-66
2023/02/08 01:59:16;;;;;;;42.67;26.50;;;-0.10;99.90;;;;;;5068883;28;20451;-68
2023/02/08 02:01:46;;;;;;;42.67;26.67;;;-0.10;99.90;;;;;;5070729;28;20473;-67
2023/02/08 02:04:13;;;;;;;46.80;27.97;;;-0.10;99.90;;;;;;5070913;28;20521;-65
2023/02/08 02:06:43;;;;;;;40.33;25.93;;;-0.10;99.90;;;;;;5071820;28;20494;-66
2023/02/08 02:09:16;;;;;;;39.27;26.73;;;-0.10;99.90;;;;;;5070792;28;20497;-66
2023/02/08 02:11:44;;;;;;;42.70;27.17;;;-0.10;99.90;;;;;;5070532;28;20436;-65
2023/02/08 02:14:11;;;;;;;43.13;26.70;;;-0.10;99.90;;;;;;5070160;28;20479;-67
2023/02/08 02:16:38;;;;;;;40.50;26.27;;;-0.20;99.90;;;;;;5070026;28;20475;-67
2023/02/08 02:19:11;;;;;;;43.47;26.97;;;-0.10;99.90;;;;;;5069902;28;20475;-66
2023/02/08 02:21:57;;;;;;;44.83;26.90;;;-0.10;99.90;;;;;;5069736;28;20471;-65
2023/02/08 02:24:51;;;;;;;34.03;23.30;;;-0.20;99.90;;;;;;5070639;28;20459;-66
2023/02/08 02:27:26;;;;;;;41.17;24.37;;;-0.20;99.90;;;;;;5069948;28;20439;-67
2023/02/08 02:30:36;;;;;;;43.67;25.63;;;-0.20;99.90;;;;;;5070019;28;20470;-67
2023/02/08 02:33:30;;;;;;;32.77;23.00;;;-0.20;99.90;;;;;;5069217;28;20462;-67
2023/02/08 02:36:02;;;;;;;37.57;24.23;;;-0.20;99.90;;;;;;5065413;28;20463;-67
2023/02/08 02:38:39;;;;;;;41.13;24.60;;;-0.30;99.90;;;;;;5072782;28;20440;-67
2023/02/08 02:41:13;;;;;;;41.10;24.20;;;-0.30;99.90;;;;;;5073654;28;20545;-65
2023/02/08 02:43:45;;;;;;;42.67;25.10;;;-0.30;99.90;;;;;;5073005;28;20808;-65
2023/02/08 02:46:23;;;;;;;35.20;23.43;;;-0.30;99.90;;;;;;5072236;28;20522;-66
2023/02/08 02:48:59;;;;;;;36.63;22.63;;;-0.40;99.90;;;;;;5070761;28;20416;-66
2023/02/08 02:51:31;;;;;;;35.20;23.60;;;-0.40;99.90;;;;;;5072376;28;20462;-66
2023/02/08 02:54:04;;;;;;;39.47;25.00;;;-0.50;99.90;;;;;;5072377;28;20506;-66
2023/02/08 02:56:35;;;;;;;34.63;23.13;;;-0.50;99.90;;;;;;5071304;28;20439;-67
2023/02/08 02:59:06;;;;;;;36.93;23.70;;;-0.50;99.90;;;;;;5070110;28;20475;-66
2023/02/08 03:01:33;;;;;;;36.10;23.00;;;-0.60;99.90;;;;;;5071662;28;20864;-67
2023/02/08 03:04:12;;;;;;;37.37;23.47;;;-0.60;99.90;;;;;;5071122;28;20474;-65
2023/02/08 03:06:54;;;;;;;37.97;23.93;;;-0.60;99.90;;;;;;5070464;28;20454;-67
2023/02/08 03:09:53;;;;;;;37.47;23.80;;;-0.60;99.90;;;;;;5070849;28;20437;-65
2023/02/08 03:12:33;;;;;;;34.00;22.37;;;-0.70;99.90;;;;;;5068846;28;20526;-66
2023/02/08 03:15:11;;;;;;;36.80;21.80;;;-0.80;99.90;;;;;;5069098;28;20497;-65
2023/02/08 03:17:52;;;;;;;36.00;23.93;;;-0.90;99.90;;;;;;5068839;28;20482;-65
2023/02/08 03:20:24;;;;;;;34.53;22.80;;;-0.90;99.90;;;;;;5069336;28;20481;-64
2023/02/08 03:23:00;;;;;;;36.13;22.93;;;-0.90;99.90;;;;;;5068579;28;20440;-66
2023/02/08 03:25:32;;;;;;;33.17;23.73;;;-0.90;99.90;;;;;;5071699;28;20837;-66
2023/02/08 03:28:05;;;;;;;37.33;23.17;;;-0.90;99.90;;;;;;5072880;28;20443;-66
2023/02/08 03:30:44;;;;;;;35.70;23.20;;;-1.00;99.90;;;;;;5070224;28;20482;-65
2023/02/08 03:33:15;;;;;;;33.17;22.07;;;-1.00;99.90;;;;;;5071039;28;20472;-65
2023/02/08 03:35:48;;;;;;;38.70;22.60;;;-1.10;99.90;;;;;;5070884;28;20456;-65
2023/02/08 03:38:22;;;;;;;33.73;21.70;;;-1.10;99.90;;;;;;5071919;28;20439;-66
2023/02/08 03:40:53;;;;;;;35.87;21.20;;;-1.10;99.90;;;;;;5072633;28;20467;-66
2023/02/08 03:43:25;;;;;;;30.93;21.17;;;-1.10;99.90;;;;;;5071767;28;20467;-66
2023/02/08 03:45:57;;;;;;;27.80;19.83;;;-1.10;99.90;;;;;;5071532;28;20888;-67
2023/02/08 03:48:27;;;;;;;34.20;21.63;;;-1.10;99.90;;;;;;5071887;28;20446;-65
2023/02/08 03:50:58;;;;;;;32.97;19.00;;;-1.10;99.90;;;;;;5072103;28;20489;-66
2023/02/08 03:53:27;;;;;;;32.67;18.93;;;-1.10;99.90;;;;;;5071871;28;20507;-66
2023/02/08 03:56:01;;;;;;;30.20;20.43;;;-1.10;99.90;;;;;;5072611;28;20479;-66
2023/02/08 03:58:34;;;;;;;28.37;18.67;;;-1.10;99.90;;;;;;5072493;28;20781;-65
2023/02/08 04:01:07;;;;;;;29.50;18.60;;;-1.00;99.90;;;;;;5070678;28;20452;-66
2023/02/08 04:03:36;;;;;;;34.87;19.07;;;-1.00;99.90;;;;;;5072131;28;20482;-65
2023/02/08 04:06:04;;;;;;;30.30;19.20;;;-1.00;99.90;;;;;;5073587;28;20459;-66
2023/02/08 04:08:31;;;;;;;30.57;19.50;;;-1.00;99.90;;;;;;5073090;28;20486;-65
2023/02/08 04:10:59;;;;;;;29.97;18.20;;;-1.00;99.90;;;;;;5073173;28;20486;-65
2023/02/08 04:13:25;;;;;;;29.93;18.87;;;-1.00;99.90;;;;;;5073115;28;20459;-66
2023/02/08 04:15:52;;;;;;;33.83;18.47;;;-1.00;99.90;;;;;;5072135;28;20472;-66
2023/02/08 04:18:19;;;;;;;33.23;18.87;;;-1.00;99.90;;;;;;5070895;28;20475;-66
2023/02/08 04:20:46;;;;;;;29.87;18.37;;;-1.00;99.90;;;;;;5071806;28;20458;-66
2023/02/08 04:23:14;;;;;;;30.40;18.53;;;-0.90;99.90;;;;;;5071575;28;20479;-67
2023/02/08 04:25:41;;;;;;;31.90;19.50;;;-0.90;99.90;;;;;;5072818;28;20523;-67
2023/02/08 04:28:08;;;;;;;30.47;18.77;;;-0.90;99.90;;;;;;5072361;28;20451;-65
2023/02/08 04:30:35;;;;;;;32.03;19.00;;;-0.90;99.90;;;;;;5072124;28;20486;-66
2023/02/08 04:33:02;;;;;;;34.30;19.83;;;-0.90;99.90;;;;;;5071219;28;20527;-66
2023/02/08 04:35:29;;;;;;;35.30;19.43;;;-0.90;99.90;;;;;;5071727;28;20502;-67
2023/02/08 04:37:56;;;;;;;27.77;19.03;;;-0.90;99.90;;;;;;5071370;28;20912;-64
2023/02/08 04:40:24;;;;;;;29.23;17.63;;;-0.90;99.90;;;;;;5071191;28;20479;-65
2023/02/08 04:42:51;;;;;;;30.33;19.53;;;-0.90;99.90;;;;;;5071200;28;20459;-66
2023/02/08 04:45:18;;;;;;;28.80;18.17;;;-0.90;99.90;;;;;;5071569;28;20490;-66
2023/02/08 04:47:45;;;;;;;30.73;20.33;;;-0.90;99.90;;;;;;5071445;28;20483;-66
2023/02/08 04:50:12;;;;;;;32.60;18.93;;;-0.90;99.90;;;;;;5071772;28;20497;-65
2023/02/08 04:52:39;;;;;;;33.93;19.43;;;-0.90;99.90;;;;;;5070629;28;20490;-65
2023/02/08 04:55:06;;;;;;;29.90;19.10;;;-0.90;99.90;;;;;;5070485;28;20619;-66
2023/02/08 04:57:35;;;;;;;31.13;19.63;;;-0.90;99.90;;;;;;5071214;28;20938;-65
2023/02/08 05:00:02;;;;;;;36.63;19.70;;;-0.90;99.90;;;;;;5071078;28;20495;-66
2023/02/08 05:02:29;;;;;;;31.97;19.50;;;-0.90;99.90;;;;;;5069880;28;20478;-66
2023/02/08 05:04:56;;;;;;;33.70;19.60;;;-1.00;99.90;;;;;;5070532;28;20479;-65
2023/02/08 05:07:22;;;;;;;33.10;20.03;;;-1.00;99.90;;;;;;5071134;28;20494;-66
2023/02/08 05:09:49;;;;;;;32.20;20.27;;;-1.00;99.90;;;;;;5070170;28;20515;-66
2023/02/08 05:12:17;;;;;;;37.10;20.77;;;-1.00;99.90;;;;;;5071258;28;20466;-67
2023/02/08 05:14:45;;;;;;;31.23;19.17;;;-1.00;99.90;;;;;;5070215;28;20578;-66
2023/02/08 05:17:12;;;;;;;33.00;19.50;;;-1.00;99.90;;;;;;5070584;28;20490;-66
2023/02/08 05:19:38;;;;;;;31.90;18.83;;;-0.90;99.90;;;;;;5070362;28;20487;-66
2023/02/08 05:22:05;;;;;;;36.37;21.33;;;-1.00;99.90;;;;;;5070965;28;20490;-66
2023/02/08 05:24:32;;;;;;;27.23;18.00;;;-1.00;99.90;;;;;;5070871;28;20503;-67
2023/02/08 05:26:59;;;;;;;28.67;19.70;;;-1.00;99.90;;;;;;5070402;28;20475;-67
2023/02/08 05:29:26;;;;;;;31.47;20.63;;;-1.00;99.90;;;;;;5070698;28;20487;-66
2023/02/08 05:31:54;;;;;;;31.07;18.33;;;-1.00;99.90;;;;;;5070048;28;20487;-66
2023/02/08 05:34:21;;;;;;;30.17;19.17;;;-1.00;99.90;;;;;;5069752;28;20482;-66
2023/02/08 05:36:48;;;;;;;29.67;20.40;;;-1.10;99.90;;;;;;5070200;28;20507;-66
2023/02/08 05:39:15;;;;;;;36.40;22.60;;;-1.10;99.90;;;;;;5070302;28;20483;-66
2023/02/08 05:41:41;;;;;;;31.50;18.77;;;-1.10;99.90;;;;;;5069757;28;20455;-66
2023/02/08 05:44:08;;;;;;;34.43;20.30;;;-1.10;99.90;;;;;;5069871;28;20475;-67
2023/02/08 05:46:35;;;;;;;35.40;19.40;;;-1.20;99.90;;;;;;5069399;28;20523;-66
2023/02/08 05:49:03;;;;;;;35.83;19.77;;;-1.20;99.90;;;;;;5068839;28;20947;-66
2023/02/08 05:51:30;;;;;;;33.80;20.00;;;-1.30;99.90;;;;;;5069318;28;20483;-66
2023/02/08 05:53:57;;;;;;;30.47;19.10;;;-1.40;99.90;;;;;;5068614;28;20483;-66
2023/02/08 05:56:24;;;;;;;30.37;18.80;;;-1.40;99.90;;;;;;5069559;28;20471;-66
2023/02/08 05:58:51;;;;;;;30.10;18.33;;;-1.50;99.90;;;;;;5069018;28;20523;-66
2023/02/08 06:01:18;;;;;;;34.07;19.77;;;-1.50;99.90;;;;;;5069792;28;20459;-66
2023/02/08 06:03:45;;;;;;;34.30;18.90;;;-1.50;99.90;;;;;;5069770;28;20469;-65
2023/02/08 06:06:13;;;;;;;33.17;20.20;;;-1.50;99.90;;;;;;5069634;28;20515;-65
2023/02/08 06:08:40;;;;;;;32.07;19.83;;;-1.60;99.90;;;;;;5075574;28;20497;-65
2023/02/08 06:11:07;;;;;;;35.67;21.03;;;-1.60;99.90;;;;;;5089484;28;20478;-66
2023/02/08 06:13:34;;;;;;;31.90;20.30;;;-1.60;99.90;;;;;;5089741;28;20459;-66
2023/02/08 06:16:01;;;;;;;41.97;24.00;;;-1.60;99.90;;;;;;5089393;28;20569;-67
2023/02/08 06:18:28;;;;;;;36.70;20.83;;;-1.60;99.90;;;;;;5088936;28;20482;-66
2023/02/08 06:20:55;;;;;;;34.63;21.63;;;-1.60;99.90;;;;;;5088569;28;20517;-66
2023/02/08 06:23:24;;;;;;;33.67;20.93;;;-1.60;99.90;;;;;;5088918;28;20455;-67
2023/02/08 06:25:51;;;;;;;38.43;21.20;;;-1.50;99.90;;;;;;5088477;28;20505;-67
2023/02/08 06:28:18;;;;;;;35.90;21.70;;;-1.50;99.90;;;;;;5088738;28;20450;-66
2023/02/08 06:30:45;;;;;;;34.87;22.20;;;-1.50;99.90;;;;;;5088876;28;20522;-66
2023/02/08 06:33:12;;;;;;;33.07;22.17;;;-1.60;99.90;;;;;;5089140;28;20489;-65
2023/02/08 06:35:39;;;;;;;56.33;24.00;;;-1.60;99.90;;;;;;5089178;28;20502;-67
2023/02/08 06:38:06;;;;;;;37.80;22.13;;;-1.60;99.90;;;;;;5089849;28;20553;-66
2023/02/08 06:40:34;;;;;;;35.90;22.20;;;-1.60;99.90;;;;;;5090297;28;20465;-65
2023/02/08 06:43:01;;;;;;;39.10;22.73;;;-1.60;99.90;;;;;;5090735;28;20819;-66
2023/02/08 06:45:28;;;;;;;36.50;22.37;;;-1.60;99.90;;;;;;5089957;28;20512;-66
2023/02/08 06:47:54;;;;;;;33.73;22.17;;;-1.60;99.90;;;;;;5089035;28;20482;-66
2023/02/08 06:50:21;;;;;;;34.93;22.40;;;-1.50;99.90;;;;;;5089294;28;20534;-67
2023/02/08 06:52:48;;;;;;;38.47;23.47;;;-1.50;99.90;;;;;;5089569;28;20621;-66
2023/02/08 06:55:15;;;;;;;39.83;23.00;;;-1.60;99.90;;;;;;5088797;28;20546;-66
2023/02/08 06:57:43;;;;;;;42.70;23.10;;;-1.60;99.90;;;;;;5090001;28;20519;-66
2023/02/08 07:00:11;;;;;;;35.77;21.53;;;-1.60;99.90;;;;;;5091954;28;20450;-65
2023/02/08 07:02:38;;;;;;;34.40;21.43;;;-1.60;99.90;;;;;;5095689;28;20509;-66
2023/02/08 07:05:06;;;;;;;34.50;22.10;;;-1.60;99.90;;;;;;5095227;28;20513;-67
2023/02/08 07:07:32;;;;;;;36.23;21.40;;;-1.50;99.90;;;;;;5091513;28;20946;-66
2023/02/08 07:09:59;;;;;;;39.47;22.00;;;-1.50;99.90;;;;;;5090624;28;20509;-67
2023/02/08 07:12:26;;;;;;;33.40;20.90;;;-1.50;99.90;;;;;;5091690;28;20479;-66
2023/02/08 07:14:54;;;;;;;39.43;21.50;;;-1.50;99.90;;;;;;5092286;28;20474;-67
2023/02/08 07:17:21;;;;;;;36.63;20.80;;;-1.60;99.90;;;;;;5092630;28;20648;-66
2023/02/08 07:19:48;;;;;;;36.70;21.77;;;-1.60;99.90;;;;;;5093618;28;20450;-68
2023/02/08 07:22:15;;;;;;;41.93;24.27;;;-1.60;99.90;;;;;;5092063;28;20465;-66
2023/02/08 07:24:42;;;;;;;41.50;22.63;;;-1.70;99.90;;;;;;5092379;28;20478;-67
2023/02/08 07:27:11;;;;;;;44.40;24.30;;;-1.60;99.90;;;;;;5091770;28;20524;-67
2023/02/08 07:29:38;;;;;;;39.70;23.13;;;-1.60;99.90;;;;;;5092075;28;20469;-66
2023/02/08 07:32:08;;;;;;;34.90;21.33;;;-1.60;99.90;;;;;;5090849;28;20454;-67
2023/02/08 07:34:39;;;;;;;36.63;21.20;;;-1.60;99.90;;;;;;5090779;28;20477;-67
2023/02/08 07:37:06;;;;;;;34.33;20.00;;;-1.60;99.90;;;;;;5091215;28;20442;-67
2023/02/08 07:39:33;;;;;;;42.80;21.97;;;-1.70;99.90;;;;;;5090708;28;20458;-67
2023/02/08 07:42:00;;;;;;;34.10;20.23;;;-1.70;99.90;;;;;;5091563;28;20450;-66
2023/02/08 07:44:27;;;;;;;37.20;20.13;;;-1.70;99.90;;;;;;5092145;28;20482;-67
2023/02/08 07:46:54;;;;;;;39.00;22.00;;;-1.70;99.90;;;;;;5091689;28;20455;-66
2023/02/08 07:49:22;;;;;;;31.40;20.83;;;-1.60;99.90;;;;;;5091279;28;20453;-67
2023/02/08 07:51:49;;;;;;;37.50;20.27;;;-1.60;99.90;;;;;;5090858;28;20450;-67
2023/02/08 07:54:16;;;;;;;33.40;19.07;;;-1.50;99.90;;;;;;5091376;28;20815;-66
2023/02/08 07:56:42;;;;;;;33.00;19.33;;;-1.40;99.90;;;;;;5090999;28;20513;-67
2023/02/08 07:59:09;;;;;;;35.17;21.13;;;-1.40;99.90;;;;;;5092060;28;20489;-65
2023/02/08 08:01:36;;;;;;;32.70;20.70;;;-1.40;99.90;;;;;;5092492;28;20454;-66
2023/02/08 08:04:03;;;;;;;37.70;20.00;;;-1.40;99.90;;;;;;5091847;28;20475;-67
2023/02/08 08:06:32;;;;;;;32.60;20.17;;;-1.30;99.90;;;;;;5091388;28;20457;-66
2023/02/08 08:08:58;;;;;;;29.40;19.07;;;-1.30;99.90;;;;;;5092253;28;20454;-67
2023/02/08 08:11:25;;;;;;;31.00;20.37;;;-1.30;99.90;;;;;;5092269;28;20521;-68
2023/02/08 08:13:52;;;;;;;33.30;19.93;;;-1.20;99.90;;;;;;5092187;28;20485;-67
2023/02/08 08:16:19;;;;;;;31.80;19.40;;;-1.20;99.90;;;;;;5091949;28;20545;-67
2023/02/08 08:18:47;;;;;;;33.63;20.37;;;-1.20;99.90;;;;;;5089788;28;20549;-67
2023/02/08 08:21:15;;;;;;;29.33;19.47;;;-1.10;99.90;;;;;;5087802;28;20497;-68
2023/02/08 08:23:43;;;;;;;36.50;20.40;;;-1.00;99.90;;;;;;5090590;28;20474;-68
2023/02/08 08:26:13;;;;;;;36.73;19.73;;;-0.90;99.90;;;;;;5091517;28;20515;-66
2023/02/08 08:28:41;;;;;;;34.90;20.47;;;-0.90;99.90;;;;;;5091123;28;20480;-67
2023/02/08 08:31:12;;;;;;;31.73;20.97;;;-0.90;99.90;;;;;;5091835;28;20451;-67
2023/02/08 08:33:39;;;;;;;31.90;20.90;;;-0.90;99.90;;;;;;5091239;28;20518;-67
2023/02/08 08:36:07;;;;;;;31.80;22.60;;;-0.90;99.90;;;;;;5092318;28;20505;-67
2023/02/08 08:38:34;;;;;;;34.00;21.03;;;-0.90;99.90;;;;;;5092376;28;20450;-66
2023/02/08 08:41:07;;;;;;;35.27;22.80;;;-0.80;99.90;;;;;;5092072;28;20454;-66
2023/02/08 08:43:34;;;;;;;37.60;23.60;;;-0.70;99.90;;;;;;5091268;28;20509;-65
2023/02/08 08:46:01;;;;;;;33.67;21.40;;;-0.60;99.90;;;;;;5091887;28;20535;-68
2023/02/08 08:48:28;;;;;;;38.50;22.10;;;-0.60;99.90;;;;;;5091400;28;20469;-67
2023/02/08 08:50:55;;;;;;;41.97;22.30;;;-0.50;99.90;;;;;;5091332;28;20907;-67
2023/02/08 08:53:22;;;;;;;37.57;22.43;;;-0.50;99.90;;;;;;5091752;28;20458;-65
2023/02/08 08:55:48;;;;;;;39.60;22.90;;;-0.50;99.90;;;;;;5090996;28;20510;-67
2023/02/08 08:58:17;;;;;;;38.70;22.77;;;-0.50;99.90;;;;;;5091193;28;20838;-66
2023/02/08 09:00:44;;;;;;;40.70;22.83;;;-0.40;99.90;;;;;;5090344;28;20503;-66
2023/02/08 09:03:11;;;;;;;38.60;23.70;;;-0.40;99.90;;;;;;5089997;28;20565;-71
2023/02/08 09:05:38;;;;;;;37.67;22.77;;;-0.40;99.90;;;;;;5091045;28;20481;-67
2023/02/08 09:08:05;;;;;;;38.17;22.67;;;-0.40;99.90;;;;;;5090265;28;20454;-66
2023/02/08 09:10:32;;;;;;;41.27;24.40;;;-0.40;99.90;;;;;;5087836;28;20522;-67
2023/02/08 09:12:59;;;;;;;43.90;23.77;;;-0.40;99.90;;;;;;5089268;28;20474;-67
2023/02/08 09:15:27;;;;;;;38.83;24.13;;;-0.30;99.90;;;;;;5088421;28;20502;-67
2023/02/08 09:17:54;;;;;;;40.67;24.23;;;-0.30;99.90;;;;;;5088910;28;20497;-66
2023/02/08 09:20:21;;;;;;;43.60;24.30;;;-0.30;99.90;;;;;;5089929;28;20451;-67
2023/02/08 09:22:48;;;;;;;41.83;25.17;;;-0.30;99.90;;;;;;5088805;28;20465;-67
2023/02/08 09:25:15;;;;;;;43.80;23.87;;;-0.30;99.90;;;;;;5088329;28;20481;-67
2023/02/08 09:27:42;;;;;;;44.37;23.67;;;-0.30;99.90;;;;;;5090089;28;20454;-67
2023/02/08 09:30:10;;;;;;;41.93;24.50;;;-0.20;99.90;;;;;;5087899;28;20454;-66
2023/02/08 09:32:38;;;;;;;42.13;23.53;;;-0.20;99.90;;;;;;5086503;28;20461;-67
2023/02/08 09:35:06;;;;;;;40.07;24.33;;;-0.10;99.90;;;;;;5087241;28;20526;-67
2023/02/08 09:37:33;;;;;;;42.47;24.17;;;0.00;99.90;;;;;;5087494;28;20522;-66
2023/02/08 09:40:00;;;;;;;40.37;23.23;;;0.10;99.90;;;;;;5087442;28;20489;-68
2023/02/08 09:42:35;;;;;;;40.63;25.50;;;0.20;99.90;;;;;;5086321;28;20458;-66
2023/02/08 09:45:25;;;;;;;36.67;23.60;;;0.40;99.90;;;;;;5086098;28;20528;-66
2023/02/08 09:48:00;;;;;;;40.27;22.77;;;0.40;99.90;;;;;;5085782;28;20460;-67
2023/02/08 09:50:32;;;;;;;42.03;23.93;;;0.50;99.90;;;;;;5086555;28;20462;-66
2023/02/08 09:53:06;;;;;;;37.73;24.17;;;0.50;99.90;;;;;;5085865;28;20910;-67
2023/02/08 09:55:37;;;;;;;46.43;25.70;;;0.50;99.90;;;;;;5085864;28;20466;-67
2023/02/08 09:58:19;;;;;;;35.90;23.23;;;0.50;99.90;;;;;;5085897;28;20743;-66
2023/02/08 10:00:49;;;;;;;40.73;23.40;;;0.50;99.90;;;;;;5085062;28;20474;-69
2023/02/08 10:03:29;;;;;;;44.43;24.33;;;0.60;99.90;;;;;;5085598;28;20438;-66
2023/02/08 10:05:56;;;;;;;36.60;23.93;;;0.70;99.90;;;;;;5086070;28;20510;-66
2023/02/08 10:08:23;;;;;;;38.17;23.63;;;0.70;99.90;;;;;;5085002;28;20493;-66
2023/02/08 10:10:54;;;;;;;40.43;24.70;;;0.70;99.90;;;;;;5085474;28;20454;-67
2023/02/08 10:13:49;;;;;;;39.00;24.20;;;0.70;99.90;;;;;;5085817;28;20453;-69
2023/02/08 10:16:31;;;;;;;44.27;25.87;;;0.70;99.90;;;;;;5085470;28;20505;-67
2023/02/08 10:19:08;;;;;;;39.20;24.93;;;0.80;99.90;;;;;;5085954;28;20439;-67
2023/02/08 10:21:48;;;;;;;40.30;24.47;;;0.90;99.90;;;;;;5085950;28;20521;-69
2023/02/08 10:24:33;;;;;;;37.70;23.90;;;0.90;99.90;;;;;;5085371;28;20442;-67
2023/02/08 10:27:10;;;;;;;41.13;24.00;;;0.80;99.90;;;;;;5085486;28;20477;-67
2023/02/08 10:29:59;;;;;;;46.73;27.47;;;0.90;99.90;;;;;;5083561;28;20522;-68
2023/02/08 10:32:37;;;;;;;37.83;23.73;;;0.80;99.90;;;;;;5084963;28;20756;-65
2023/02/08 10:35:11;;;;;;;45.63;25.23;;;0.90;99.90;;;;;;5084508;28;20438;-66
2023/02/08 10:37:41;;;;;;;47.07;25.63;;;0.90;99.90;;;;;;5084209;28;20512;-68
2023/02/08 10:40:24;;;;;;;40.43;24.70;;;1.00;99.90;;;;;;5066505;28;20458;-67
2023/02/08 10:42:59;;;;;;;41.77;24.57;;;0.90;99.90;;;;;;5064006;28;20497;-67
2023/02/08 10:45:31;;;;;;;44.33;26.00;;;0.90;99.90;;;;;;5064354;28;20796;-67
2023/02/08 10:48:03;;;;;;;46.07;25.90;;;0.80;99.90;;;;;;5064733;28;20470;-67
2023/02/08 10:50:35;;;;;;;46.33;27.00;;;0.90;99.90;;;;;;5082924;28;20450;-68
2023/02/08 10:53:03;;;;;;;38.77;23.83;;;1.00;99.90;;;;;;5083563;28;20446;-67
2023/02/08 10:55:31;;;;;;;43.50;25.73;;;1.20;99.90;;;;;;5083493;28;20489;-68
2023/02/08 10:58:02;;;;;;;40.47;26.53;;;1.30;99.90;;;;;;5083079;28;20457;-67
2023/02/08 11:00:31;;;;;;;41.90;25.30;;;1.30;99.90;;;;;;5082759;28;20474;-67
2023/02/08 11:03:03;;;;;;;39.73;25.10;;;1.40;99.90;;;;;;5083544;28;20529;-66
2023/02/08 11:05:36;;;;;;;47.13;25.40;;;1.40;99.90;;;;;;5082968;28;20465;-67
2023/02/08 11:08:09;;;;;;;46.13;24.57;;;1.60;99.90;;;;;;5083760;28;20486;-67
2023/02/08 11:10:37;;;;;;;43.43;25.13;;;1.70;99.90;;;;;;5083475;28;20775;-67
2023/02/08 11:13:07;;;;;;;38.87;23.50;;;1.80;99.90;;;;;;5083573;28;20478;-66
2023/02/08 11:15:38;;;;;;;47.40;24.97;;;1.80;99.90;;;;;;5083371;28;20454;-67
2023/02/08 11:18:13;;;;;;;40.33;24.83;;;1.90;99.90;;;;;;5083286;28;20445;-67
2023/02/08 11:20:41;;;;;;;38.37;25.93;;;1.90;99.90;;;;;;5082937;28;20434;-67
2023/02/08 11:23:22;;;;;;;46.80;26.40;;;2.00;99.90;;;;;;5083531;28;20446;-67
2023/02/08 11:25:49;;;;;;;42.37;23.20;;;2.00;99.90;;;;;;5083070;28;20891;-67
2023/02/08 11:28:28;;;;;;;39.37;24.33;;;2.10;99.90;;;;;;5082591;28;20509;-67
2023/02/08 11:30:58;;;;;;;39.50;24.17;;;2.10;99.90;;;;;;5080648;28;20441;-66
2023/02/08 11:33:26;;;;;;;37.60;23.90;;;2.10;99.90;;;;;;5082139;28;20489;-67
2023/02/08 11:36:05;;;;;;;44.03;25.50;;;2.10;99.90;;;;;;5086229;28;20468;-68
2023/02/08 11:38:34;;;;;;;38.10;23.90;;;2.00;99.90;;;;;;5084811;28;20525;-66
2023/02/08 11:41:04;;;;;;;39.20;24.13;;;1.90;99.90;;;;;;5085569;28;20454;-65
2023/02/08 11:43:33;;;;;;;35.77;22.40;;;1.90;99.90;;;;;;5085830;28;20470;-66
2023/02/08 11:46:02;;;;;;;37.37;23.07;;;2.00;99.90;;;;;;5088282;28;20521;-66
2023/02/08 11:48:39;;;;;;;41.20;23.50;;;2.00;99.90;;;;;;5088145;28;20549;-67
2023/02/08 11:51:12;;;;;;;37.13;23.37;;;2.10;99.90;;;;;;5087528;28;20466;-68
2023/02/08 11:53:41;;;;;;;47.73;26.30;;;2.20;99.90;;;;;;5088468;28;20447;-67
2023/02/08 11:56:17;;;;;;;44.50;26.97;;;2.30;99.90;;;;;;5088290;28;22420;-66
2023/02/08 11:58:57;;;;;;;40.27;24.23;;;2.40;99.90;;;;;;5090032;28;20505;-67
2023/02/08 12:01:28;;;;;;;32.63;22.03;;;2.60;99.90;;;;;;5089916;28;20620;-68
2023/02/08 12:03:57;;;;;;;32.60;22.27;;;2.80;99.90;;;;;;5089693;28;20512;-67
2023/02/08 12:06:47;;;;;;;38.17;23.40;;;2.90;99.90;;;;;;5088334;28;20458;-67
2023/02/08 12:09:27;;;;;;;40.87;23.97;;;2.80;99.90;;;;;;5071576;28;20585;-67
2023/02/08 12:12:01;;;;;;;45.57;24.30;;;2.70;99.90;;;;;;5066908;28;20543;-67
2023/02/08 12:14:48;;;;;;;40.80;23.83;;;2.80;99.90;;;;;;5067890;28;20493;-66
2023/02/08 12:17:48;;;;;;;34.30;21.13;;;3.40;99.90;;;;;;5068985;28;20522;-65
2023/02/08 12:20:36;;;;;;;31.60;20.97;;;4.30;99.90;;;;;;5070200;28;20533;-67
2023/02/08 12:23:28;;;;;;;32.60;20.73;;;5.40;99.90;;;;;;5070138;28;20451;-66
2023/02/08 12:26:05;;;;;;;31.70;21.40;;;6.20;99.90;;;;;;5065789;28;20758;-67
2023/02/08 12:28:44;;;;;;;37.20;22.03;;;6.30;99.90;;;;;;5068373;28;20501;-67
2023/02/08 12:31:18;;;;;;;34.53;21.23;;;7.00;99.90;;;;;;5069987;28;20493;-67
2023/02/08 12:33:56;;;;;;;37.07;21.70;;;7.70;95.70;;;;;;5069577;28;20482;-68
2023/02/08 12:40:48;;;;;;;32.00;19.90;;;8.10;92.40;;;;;;5070006;28;20498;-67
2023/02/08 12:42:44;;;;;;;32.90;21.30;;;8.70;82.70;;;;;;5069973;28;20427;-66
2023/02/08 12:45:42;;;;;;;32.00;21.07;;;8.80;78.30;;;;;;5070487;28;20463;-68
2023/02/08 12:48:28;;;;;;;33.43;22.43;;;9.50;73.00;;;;;;5070064;28;20471;-67
2023/02/08 12:51:04;;;;;;;32.60;20.40;;;10.10;65.00;;;;;;5071103;28;20440;-66